Pagina principale
METAR-TAF:

METAR-TAF

Aeroporti :

Aeroporto di Arad

Arad, Romania

latitudine: 46-12N, longitudine: 021-24E, altezza: 117 m

Osservazione

Il bollettino è stato emesso 31 minuti fa, alle 01:00 UTC
Vento 5 kt da est
Temperature 20°C
Umidità 78%
Pressione 1018 hPa
Visibilità 10 km o più

METAR: LRAR 210100Z AUTO 08005KT 9999 NCD 20/16 Q1018

Ora: 04:31 (01:31 UTC)

Previsione

Il bollettino è stato emesso 8 ore e 31 minuti fa, alle 17:00 UTC
Previsione valida dal 20 alle 18 UTC al 21 alle 03 UTC
Vento 10 kt da nord/nord-est
Visibilità 10 km o più
nessuna nube inferiore a 1500 m e nessun cumulonembo
Evoluzione graduale
dal 20 alle 22 UTC al 21 alle 00 UTC
Vento 4 kt da direzioni variabili

TAF: LRAR 201700Z 2018/2103 03010KT CAVOK BECMG 2022/2100 VRB04KT

Osservazioni e previsioni meteorologiche di più di 4000 aeroporti (messaggi METAR e TAF).

Le stazioni disponibili sono rappresentate dai dischi gialli e rossi sulla carta.

Puntare il mouse per vedere il nome della stazione.

Clicca sopra per visualizzare le osservazioni e previsioni meteorologiche.

Per cambiare la mappa : fare clic sui pulsanti verdi con una croce nera per ingrandire, il pulsante verde con un trattino per diminuire, o sulla freccia verde per le mappe adiacenti.


METAR-TAF: